Terminal Aerodrome Forecast
Issued by NWS

Home | Current Version | Previous Version | Graphics & Text | Print | Product List | Glossary On
Versions: 1 2 3 4 5 6 7 8 9 10 11 12 13 14 15
000
FTUS43 KTOP 252200 AAA
TAFMHK
TAF AMD
KMHK 252240Z 2523/2618 34020G28KT P6SM VCSH BKN015
     FM260000 36025G32KT 6SM -SN OVC020
     FM260200 01017G26KT P6SM OVC020
     FM261500 01014G20KT P6SM SCT025=

USA.gov is the U.S. government's official web portal to all federal, state and local government web resources and services.